createdAt,value
2017-02-20T00:00:45.921Z,0
2017-02-20T00:01:56.311Z,0
2017-02-20T00:03:06.728Z,0
2017-02-20T00:04:17.520Z,0
2017-02-20T00:05:28.311Z,0
2017-02-20T00:06:39.092Z,0
2017-02-20T00:07:49.095Z,0
2017-02-20T00:08:59.497Z,0
2017-02-20T00:10:10.322Z,0
2017-02-20T00:11:20.323Z,0
2017-02-20T00:12:30.723Z,0
2017-02-20T00:13:41.507Z,0
2017-02-20T00:14:51.896Z,0
2017-02-20T00:16:02.312Z,0
2017-02-20T00:17:13.131Z,0
2017-02-20T00:18:23.960Z,0
2017-02-20T00:19:34.742Z,0
2017-02-20T00:20:45.558Z,0
2017-02-20T00:21:55.217Z,0
2017-02-20T00:23:06.038Z,0
2017-02-20T00:24:16.830Z,0
2017-02-20T00:25:26.845Z,0
2017-02-20T00:26:36.813Z,0
2017-02-20T00:27:46.791Z,0
2017-02-20T00:28:56.815Z,0
2017-02-20T00:30:06.806Z,0
2017-02-20T00:31:17.591Z,0
2017-02-20T00:32:27.568Z,0
2017-02-20T00:33:37.951Z,0
2017-02-20T00:34:48.319Z,0
2017-02-20T00:35:58.702Z,0
2017-02-20T00:37:09.473Z,0
2017-02-20T00:38:19.884Z,0
2017-02-20T00:39:30.253Z,0
2017-02-20T00:40:40.257Z,0
2017-02-20T00:41:51.029Z,0
2017-02-20T00:43:01.796Z,0
2017-02-20T00:44:12.572Z,0
2017-02-20T00:45:22.560Z,0
2017-02-20T00:46:32.935Z,0
2017-02-20T00:47:43.334Z,0
2017-02-20T00:48:54.153Z,0
2017-02-20T00:50:04.781Z,0
2017-02-20T00:51:16.289Z,0
2017-02-20T00:52:26.926Z,0
2017-02-20T00:53:37.935Z,0
2017-02-20T00:54:48.313Z,0
2017-02-20T00:55:59.579Z,0
2017-02-20T00:57:10.724Z,0
2017-02-20T00:58:21.564Z,0
2017-02-20T00:59:31.548Z,0
2017-02-20T01:00:42.367Z,0
2017-02-20T01:01:54.623Z,0
2017-02-20T01:03:05.309Z,0
2017-02-20T01:04:16.902Z,0
2017-02-20T01:05:27.895Z,0
2017-02-20T01:06:38.672Z,0
2017-02-20T01:07:49.335Z,0
2017-02-20T01:09:00.349Z,0
2017-02-20T01:10:11.428Z,0
2017-02-20T01:11:22.991Z,0
2017-02-20T01:12:34.510Z,0
2017-02-20T01:13:45.275Z,0
2017-02-20T01:14:56.030Z,0
2017-02-20T01:16:06.809Z,0
2017-02-20T01:17:17.240Z,0
2017-02-20T01:18:27.639Z,0
2017-02-20T01:19:37.625Z,0
2017-02-20T01:20:48.396Z,0
2017-02-20T01:21:58.772Z,0
2017-02-20T01:23:09.549Z,0
2017-02-20T01:24:19.525Z,0
2017-02-20T01:25:29.102Z,0
2017-02-20T01:26:39.881Z,0
2017-02-20T01:27:50.687Z,0
2017-02-20T01:29:01.491Z,0
2017-02-20T01:30:11.878Z,0
2017-02-20T01:31:22.670Z,0
2017-02-20T01:32:33.069Z,0
2017-02-20T01:33:43.470Z,0
2017-02-20T01:34:54.246Z,0
2017-02-20T01:36:05.041Z,0
2017-02-20T01:37:15.023Z,0
2017-02-20T01:38:25.417Z,0
2017-02-20T01:39:36.197Z,0
2017-02-20T01:40:46.967Z,0
2017-02-20T01:41:57.340Z,0
2017-02-20T01:43:08.104Z,0
2017-02-20T01:44:18.096Z,0
2017-02-20T01:45:28.501Z,0
2017-02-20T01:46:38.900Z,0
2017-02-20T01:47:49.270Z,0
2017-02-20T01:48:59.657Z,0
2017-02-20T01:50:10.424Z,0
2017-02-20T01:51:21.206Z,0
2017-02-20T01:52:31.982Z,0
2017-02-20T01:53:41.984Z,0
2017-02-20T01:54:52.780Z,0
2017-02-20T01:56:03.172Z,0
2017-02-20T01:57:13.164Z,0
2017-02-20T01:58:23.166Z,0
2017-02-20T01:59:33.980Z,0
2017-02-20T02:00:44.752Z,0
2017-02-20T02:01:55.159Z,0
2017-02-20T02:03:05.167Z,0
2017-02-20T02:04:15.162Z,0
2017-02-20T02:05:25.946Z,0
2017-02-20T02:06:36.735Z,0
2017-02-20T02:07:47.138Z,0
2017-02-20T02:08:57.140Z,0
2017-02-20T02:10:07.513Z,0
2017-02-20T02:11:18.146Z,0
2017-02-20T02:12:28.546Z,0
2017-02-20T02:13:38.940Z,0
2017-02-20T02:14:49.743Z,0
2017-02-20T02:16:00.523Z,0
2017-02-20T02:17:11.284Z,0
2017-02-20T02:18:21.705Z,0
2017-02-20T02:19:32.480Z,0
2017-02-20T02:20:42.469Z,0
2017-02-20T02:21:53.278Z,0
2017-02-20T02:23:04.045Z,0
2017-02-20T02:24:14.424Z,0
2017-02-20T02:25:25.196Z,0
2017-02-20T02:26:35.981Z,0
2017-02-20T02:27:46.364Z,0
2017-02-20T02:28:56.745Z,0
2017-02-20T02:30:07.134Z,0
2017-02-20T02:31:17.899Z,0
2017-02-20T02:32:28.322Z,0
2017-02-20T02:33:38.714Z,0
2017-02-20T02:34:49.554Z,0
2017-02-20T02:36:00.353Z,0
2017-02-20T02:37:10.782Z,0
2017-02-20T02:38:20.800Z,0
2017-02-20T02:39:31.573Z,0
2017-02-20T02:40:42.347Z,0
2017-02-20T02:41:53.136Z,0
2017-02-20T02:43:03.911Z,0
2017-02-20T02:44:14.692Z,0
2017-02-20T02:45:25.083Z,0
2017-02-20T02:46:35.478Z,0
2017-02-20T02:47:45.874Z,0
2017-02-20T02:48:56.241Z,0
2017-02-20T02:50:06.218Z,0
2017-02-20T02:51:16.223Z,0
2017-02-20T02:52:26.590Z,0
2017-02-20T02:53:37.362Z,0
2017-02-20T02:54:47.757Z,0
2017-02-20T02:55:57.780Z,0
2017-02-20T02:57:08.571Z,0
2017-02-20T02:58:18.934Z,0
2017-02-20T02:59:28.948Z,0
2017-02-20T03:00:39.722Z,0
2017-02-20T03:32:51.000Z,0
2017-02-20T03:34:01.435Z,0
2017-02-20T03:35:12.195Z,0
2017-02-20T03:36:22.962Z,0
2017-02-20T03:37:33.321Z,0
2017-02-20T03:38:43.708Z,0
2017-02-20T03:39:54.475Z,0
2017-02-20T03:41:05.252Z,0
2017-02-20T03:42:14.851Z,0
2017-02-20T03:43:24.450Z,0
2017-02-20T03:44:35.237Z,0
2017-02-20T03:45:46.045Z,0
2017-02-20T03:46:56.441Z,0
2017-02-20T03:48:06.051Z,0
2017-02-20T03:49:16.449Z,0
2017-02-20T03:50:26.860Z,0
2017-02-20T03:51:37.250Z,0
2017-02-20T03:52:47.623Z,0
2017-02-20T03:53:58.002Z,0
2017-02-20T03:55:07.996Z,0
2017-02-20T03:56:18.366Z,0
2017-02-20T03:57:29.144Z,0
2017-02-20T03:58:39.524Z,0
2017-02-20T03:59:49.514Z,0
2017-02-20T04:00:59.902Z,0
2017-02-20T04:02:10.278Z,0
2017-02-20T04:03:20.270Z,0
2017-02-20T04:04:30.648Z,0
2017-02-20T04:05:41.019Z,0
2017-02-20T04:06:51.448Z,0
2017-02-20T04:08:01.449Z,0
2017-02-20T04:09:11.838Z,0
2017-02-20T04:10:21.435Z,0
2017-02-20T04:11:31.825Z,0
2017-02-20T04:12:41.863Z,0
2017-02-20T04:13:52.690Z,0
2017-02-20T04:15:02.320Z,0
2017-02-20T04:16:13.123Z,0
2017-02-20T04:17:23.881Z,0
2017-02-20T04:18:34.252Z,0
2017-02-20T04:19:45.019Z,0
2017-02-20T04:20:55.420Z,0
2017-02-20T04:22:05.802Z,0
2017-02-20T04:23:16.564Z,0
2017-02-20T04:24:26.576Z,0
2017-02-20T04:25:37.356Z,0
2017-02-20T04:26:48.145Z,0
2017-02-20T04:27:58.934Z,0
2017-02-20T04:29:09.727Z,0
2017-02-20T04:30:20.498Z,0
2017-02-20T04:31:31.323Z,0
2017-02-20T04:32:41.697Z,0
2017-02-20T04:33:52.505Z,0
2017-02-20T04:35:02.505Z,0
2017-02-20T04:36:13.327Z,0
2017-02-20T04:37:24.124Z,0
2017-02-20T04:38:34.507Z,0
2017-02-20T04:39:45.264Z,0
2017-02-20T04:40:54.867Z,0
2017-02-20T04:42:05.647Z,0
2017-02-20T04:43:16.061Z,0
2017-02-20T04:44:26.824Z,0
2017-02-20T04:45:36.821Z,0
2017-02-20T04:46:47.610Z,0
2017-02-20T04:47:58.005Z,0
2017-02-20T04:49:07.603Z,0
2017-02-20T04:50:18.406Z,0
2017-02-20T04:51:29.186Z,0
2017-02-20T04:52:39.574Z,0
2017-02-20T04:53:49.583Z,0
2017-02-20T04:55:00.345Z,0
2017-02-20T04:56:10.745Z,0
2017-02-20T04:57:21.504Z,0
2017-02-20T04:58:32.279Z,0
2017-02-20T04:59:43.079Z,0
2017-02-20T05:00:53.459Z,0
2017-02-20T05:02:03.454Z,0
2017-02-20T05:03:13.828Z,0
2017-02-20T05:04:24.611Z,0
2017-02-20T05:05:34.210Z,0
2017-02-20T05:06:45.040Z,0
2017-02-20T05:07:55.409Z,0
2017-02-20T05:09:05.012Z,0
2017-02-20T05:10:15.771Z,0
2017-02-20T05:11:25.372Z,0
2017-02-20T05:12:35.751Z,0
2017-02-20T05:13:46.133Z,0
2017-02-20T05:14:56.117Z,0
2017-02-20T05:16:06.531Z,0
2017-02-20T05:17:16.539Z,0
2017-02-20T05:18:27.312Z,0
2017-02-20T05:19:38.109Z,0
2017-02-20T05:20:48.889Z,0
2017-02-20T05:21:59.272Z,0
2017-02-20T05:23:09.671Z,0
2017-02-20T05:24:20.463Z,0
2017-02-20T05:25:30.843Z,0
2017-02-20T05:26:41.615Z,0
2017-02-20T05:27:51.994Z,0
2017-02-20T05:29:01.989Z,0
2017-02-20T05:30:11.990Z,0
2017-02-20T05:31:22.370Z,0
2017-02-20T05:32:32.375Z,0
2017-02-20T05:33:42.762Z,0
2017-02-20T05:34:53.557Z,0
2017-02-20T05:36:03.949Z,0
2017-02-20T05:37:14.324Z,0
2017-02-20T05:38:25.093Z,0
2017-02-20T05:39:35.928Z,0
2017-02-20T05:40:45.933Z,0
2017-02-20T05:41:55.521Z,0
2017-02-20T05:43:05.928Z,0
2017-02-20T05:44:16.693Z,0
2017-02-20T05:45:27.476Z,0
2017-02-20T05:46:37.872Z,0
2017-02-20T05:47:48.690Z,0
2017-02-20T05:48:59.065Z,0
2017-02-20T05:50:09.438Z,0
2017-02-20T05:51:20.220Z,0
2017-02-20T05:52:30.190Z,0
2017-02-20T05:53:39.768Z,0
2017-02-20T05:54:49.376Z,0
2017-02-20T05:56:00.178Z,0
2017-02-20T05:57:10.547Z,0
2017-02-20T05:58:21.330Z,0
2017-02-20T05:59:31.706Z,0
2017-02-20T06:00:41.715Z,0
2017-02-20T06:01:51.717Z,5
2017-02-20T06:03:02.135Z,5
2017-02-20T06:04:12.931Z,5
2017-02-20T06:05:23.710Z,5
2017-02-20T06:06:34.512Z,5
2017-02-20T06:07:44.503Z,5
2017-02-20T06:08:55.284Z,5
2017-02-20T06:10:06.076Z,5
2017-02-20T06:11:15.668Z,5
2017-02-20T06:12:26.061Z,5
2017-02-20T06:13:36.065Z,5
2017-02-20T06:14:45.664Z,5
2017-02-20T06:15:56.445Z,5
2017-02-20T06:17:06.816Z,5
2017-02-20T06:18:17.587Z,5
2017-02-20T06:19:28.355Z,5
2017-02-20T06:20:38.794Z,5
2017-02-20T06:21:49.199Z,5
2017-02-20T06:22:59.586Z,5
2017-02-20T06:24:10.347Z,5
2017-02-20T06:25:21.128Z,5
2017-02-20T06:26:31.572Z,5
2017-02-20T06:27:41.980Z,5
2017-02-20T06:28:52.764Z,5
2017-02-20T06:30:03.555Z,5
2017-02-20T06:31:13.937Z,5
2017-02-20T06:32:24.305Z,5
2017-02-20T06:33:34.705Z,5
2017-02-20T06:34:45.104Z,10
2017-02-20T06:35:55.880Z,10
2017-02-20T06:37:06.276Z,10
2017-02-20T06:38:16.279Z,10
2017-02-20T06:39:26.652Z,10
2017-02-20T06:40:37.060Z,15
2017-02-20T06:41:47.049Z,15
2017-02-20T06:42:57.451Z,15
2017-02-20T06:44:07.856Z,15
2017-02-20T06:45:18.240Z,10
2017-02-20T06:46:28.635Z,10
2017-02-20T06:47:38.630Z,15
2017-02-20T06:48:48.610Z,15
2017-02-20T06:49:59.420Z,20
2017-02-20T06:51:09.825Z,20
2017-02-20T06:52:20.603Z,25
2017-02-20T06:53:30.991Z,30
2017-02-20T06:54:41.756Z,30
2017-02-20T06:55:51.732Z,35
2017-02-20T06:57:01.728Z,35
2017-02-20T06:58:12.512Z,35
2017-02-20T06:59:22.149Z,35
2017-02-20T07:00:32.136Z,40
2017-02-20T07:01:42.532Z,40
2017-02-20T07:02:53.295Z,40
2017-02-20T07:04:04.096Z,40
2017-02-20T07:05:14.915Z,40
2017-02-20T07:06:25.689Z,40
2017-02-20T07:07:36.085Z,45
2017-02-20T07:08:46.873Z,45
2017-02-20T07:09:56.850Z,45
2017-02-20T07:11:07.627Z,40
2017-02-20T07:12:17.614Z,40
2017-02-20T07:13:27.994Z,40
2017-02-20T07:14:37.978Z,45
2017-02-20T07:15:48.758Z,50
2017-02-20T07:16:58.746Z,50
2017-02-20T07:18:09.526Z,55
2017-02-20T07:19:19.519Z,55
2017-02-20T07:20:29.907Z,55
2017-02-20T07:21:40.772Z,55
2017-02-20T07:22:51.552Z,55
2017-02-20T07:24:01.562Z,60
2017-02-20T07:25:11.951Z,60
2017-02-20T07:26:22.359Z,60
2017-02-20T07:27:32.751Z,60
2017-02-20T07:28:43.142Z,60
2017-02-20T07:29:53.915Z,60
2017-02-20T07:31:04.695Z,60
2017-02-20T07:32:15.085Z,60
2017-02-20T07:33:25.469Z,60
2017-02-20T07:34:35.861Z,65
2017-02-20T07:35:45.885Z,65
2017-02-20T07:36:55.883Z,70
2017-02-20T07:38:05.857Z,75
2017-02-20T07:39:16.266Z,80
2017-02-20T07:40:26.651Z,85
2017-02-20T07:41:37.435Z,95
2017-02-20T07:42:47.822Z,110
2017-02-20T07:43:58.684Z,110
2017-02-20T07:45:09.526Z,110
2017-02-20T07:46:20.322Z,110
2017-02-20T07:47:30.733Z,115
2017-02-20T07:48:41.520Z,115
2017-02-20T07:49:51.952Z,105
2017-02-20T07:51:02.752Z,90
2017-02-20T07:52:12.765Z,85
2017-02-20T07:53:23.529Z,90
2017-02-20T07:54:34.322Z,90
2017-02-20T07:55:44.310Z,95
2017-02-20T07:56:54.694Z,100
2017-02-20T07:58:04.705Z,100
2017-02-20T07:59:15.512Z,105
2017-02-20T08:00:25.894Z,110
2017-02-20T08:01:36.269Z,110
2017-02-20T08:02:47.034Z,105
2017-02-20T08:03:57.827Z,105
2017-02-20T08:05:08.227Z,110
2017-02-20T08:06:18.632Z,115
2017-02-20T08:07:29.395Z,115
2017-02-20T08:08:40.197Z,115
2017-02-20T08:09:50.973Z,110
2017-02-20T08:11:00.954Z,100
2017-02-20T08:12:10.941Z,95
2017-02-20T08:13:21.733Z,90
2017-02-20T08:14:32.138Z,90
2017-02-20T08:15:42.918Z,90
2017-02-20T08:16:53.322Z,90
2017-02-20T08:18:03.737Z,95
2017-02-20T08:19:14.121Z,95
2017-02-20T08:20:24.900Z,95
2017-02-20T08:21:35.268Z,95
2017-02-20T08:22:45.338Z,100
2017-02-20T08:23:55.732Z,100
2017-02-20T08:25:06.533Z,105
2017-02-20T08:26:16.906Z,105
2017-02-20T08:27:27.298Z,105
2017-02-20T08:28:37.695Z,110
2017-02-20T08:29:48.496Z,110
2017-02-20T08:30:58.863Z,110
2017-02-20T08:32:08.873Z,110
2017-02-20T08:33:18.923Z,115
2017-02-20T08:34:29.300Z,115
2017-02-20T08:35:39.689Z,105
2017-02-20T08:36:49.703Z,100
2017-02-20T08:38:00.497Z,105
2017-02-20T08:39:10.874Z,110
2017-02-20T08:40:21.303Z,120
2017-02-20T08:41:31.306Z,125
2017-02-20T08:42:41.694Z,125
2017-02-20T08:43:52.100Z,130
2017-02-20T08:45:02.882Z,125
2017-02-20T08:46:12.910Z,130
2017-02-20T08:47:23.296Z,135
2017-02-20T08:48:34.069Z,130
2017-02-20T08:49:44.474Z,130
2017-02-20T08:50:54.859Z,135
2017-02-20T08:52:04.448Z,145
2017-02-20T08:53:15.228Z,155
2017-02-20T08:54:26.031Z,145
2017-02-20T08:55:36.417Z,145
2017-02-20T08:56:47.217Z,140
2017-02-20T08:57:57.221Z,145
2017-02-20T08:59:07.223Z,145
2017-02-20T09:00:18.008Z,150
2017-02-20T09:01:28.406Z,150
2017-02-20T09:02:38.410Z,160
2017-02-20T09:03:48.799Z,165
2017-02-20T09:04:59.575Z,170
2017-02-20T09:06:09.964Z,170
2017-02-20T09:07:19.969Z,165
2017-02-20T09:08:30.370Z,160
2017-02-20T09:09:41.154Z,160
2017-02-20T09:10:50.781Z,165
2017-02-20T09:12:01.170Z,170
2017-02-20T09:13:11.576Z,170
2017-02-20T09:14:21.964Z,170
2017-02-20T09:15:32.771Z,175
2017-02-20T09:16:43.547Z,175
2017-02-20T09:17:54.331Z,175
2017-02-20T09:19:04.751Z,175
2017-02-20T09:20:15.552Z,170
2017-02-20T09:21:26.365Z,170
2017-02-20T09:22:36.748Z,170
2017-02-20T09:23:46.738Z,165
2017-02-20T09:24:57.532Z,165
2017-02-20T09:26:07.913Z,170
2017-02-20T09:27:18.736Z,170
2017-02-20T09:28:29.127Z,175
2017-02-20T09:29:39.889Z,175
2017-02-20T09:30:50.679Z,170
2017-02-20T09:32:01.056Z,170
2017-02-20T09:33:11.534Z,170
2017-02-20T09:34:21.926Z,170
2017-02-20T09:35:32.718Z,175
2017-02-20T09:36:43.115Z,175
2017-02-20T09:37:53.511Z,175
2017-02-20T09:39:03.557Z,170
2017-02-20T09:40:13.963Z,175
2017-02-20T09:41:24.369Z,175
2017-02-20T09:42:35.161Z,180
2017-02-20T09:43:45.974Z,180
2017-02-20T09:44:55.982Z,185
2017-02-20T09:46:06.351Z,185
2017-02-20T09:47:17.120Z,185
2017-02-20T09:48:27.522Z,195
2017-02-20T09:49:37.913Z,195
2017-02-20T09:50:48.713Z,190
2017-02-20T09:51:59.511Z,190
2017-02-20T09:53:10.303Z,190
2017-02-20T09:54:20.702Z,185
2017-02-20T09:55:31.497Z,180
2017-02-20T09:56:42.326Z,175
2017-02-20T09:57:52.719Z,165
2017-02-20T09:59:03.522Z,160
2017-02-20T10:00:13.912Z,160
2017-02-20T10:01:24.320Z,150
2017-02-20T10:02:35.086Z,150
2017-02-20T10:03:45.534Z,145
2017-02-20T10:04:55.549Z,145
2017-02-20T10:06:06.317Z,140
2017-02-20T10:07:16.733Z,135
2017-02-20T10:08:27.516Z,130
2017-02-20T10:09:37.912Z,130
2017-02-20T10:10:48.308Z,130
2017-02-20T10:11:59.130Z,135
2017-02-20T10:13:09.136Z,135
2017-02-20T10:14:19.532Z,140
2017-02-20T10:15:30.325Z,145
2017-02-20T10:16:41.113Z,150
2017-02-20T10:17:51.924Z,155
2017-02-20T10:19:02.341Z,155
2017-02-20T10:20:13.258Z,155
2017-02-20T10:21:24.048Z,150
2017-02-20T10:22:34.842Z,140
2017-02-20T10:23:44.897Z,140
2017-02-20T10:24:55.713Z,135
2017-02-20T10:26:06.501Z,130
2017-02-20T10:27:16.918Z,130
2017-02-20T10:28:27.708Z,135
2017-02-20T10:29:38.081Z,140
2017-02-20T10:30:48.096Z,145
2017-02-20T10:31:58.499Z,150
2017-02-20T10:33:08.504Z,155
2017-02-20T10:34:19.324Z,150
2017-02-20T10:35:29.753Z,150
2017-02-20T10:36:40.522Z,145
2017-02-20T10:37:50.974Z,140
2017-02-20T10:39:01.376Z,135
2017-02-20T10:40:11.791Z,135
2017-02-20T10:41:22.590Z,135
2017-02-20T10:42:33.385Z,135
2017-02-20T10:43:43.797Z,130
2017-02-20T10:44:54.607Z,130
2017-02-20T10:46:05.008Z,135
2017-02-20T10:47:15.802Z,140
2017-02-20T10:48:26.227Z,155
2017-02-20T10:49:36.234Z,170
2017-02-20T10:50:47.015Z,175
2017-02-20T10:51:57.453Z,180
2017-02-20T10:53:07.471Z,170
2017-02-20T10:54:18.236Z,165
2017-02-20T10:55:29.045Z,155
2017-02-20T10:56:39.445Z,150
2017-02-20T10:57:50.213Z,145
2017-02-20T10:59:00.644Z,135
2017-02-20T11:00:11.053Z,130
2017-02-20T11:01:21.041Z,130
2017-02-20T11:02:31.453Z,125
2017-02-20T11:03:41.839Z,125
2017-02-20T11:04:52.247Z,130
2017-02-20T11:06:03.056Z,135
2017-02-20T11:07:13.467Z,140
2017-02-20T11:08:23.863Z,145
2017-02-20T11:09:34.663Z,160
2017-02-20T11:10:45.454Z,170
2017-02-20T11:11:55.842Z,175
2017-02-20T11:13:06.640Z,180
2017-02-20T11:14:16.644Z,180
2017-02-20T11:15:27.042Z,175
2017-02-20T11:16:37.447Z,175
2017-02-20T11:17:47.830Z,175
2017-02-20T11:18:58.633Z,155
2017-02-20T11:20:09.433Z,150
2017-02-20T11:21:20.098Z,150
2017-02-20T11:22:30.498Z,155
2017-02-20T11:23:41.277Z,165
2017-02-20T11:24:52.070Z,165
2017-02-20T11:26:02.063Z,155
2017-02-20T11:27:12.838Z,150
2017-02-20T11:28:22.820Z,135
2017-02-20T11:29:33.866Z,135
2017-02-20T11:30:44.260Z,130
2017-02-20T11:31:54.662Z,130
2017-02-20T11:33:05.261Z,135
2017-02-20T11:34:14.460Z,145
2017-02-20T11:35:24.855Z,155
2017-02-20T11:36:35.531Z,165
2017-02-20T11:37:46.520Z,170
2017-02-20T11:38:56.521Z,165
2017-02-20T11:40:06.509Z,170
2017-02-20T11:41:17.291Z,260
2017-02-20T11:42:28.077Z,200
2017-02-20T11:43:38.080Z,140
2017-02-20T11:44:48.506Z,140
2017-02-20T11:45:59.330Z,175
2017-02-20T11:47:09.715Z,205
2017-02-20T11:48:20.112Z,300
2017-02-20T11:49:30.497Z,165
2017-02-20T11:50:40.503Z,235
2017-02-20T11:51:51.322Z,310
2017-02-20T11:53:02.098Z,290
2017-02-20T11:54:12.868Z,220
2017-02-20T11:55:23.272Z,265
2017-02-20T11:56:34.054Z,330
2017-02-20T11:57:44.852Z,325
2017-02-20T11:58:55.255Z,320
2017-02-20T12:00:06.044Z,310
2017-02-20T12:01:16.465Z,300
2017-02-20T12:02:26.865Z,295
2017-02-20T12:03:36.483Z,225
2017-02-20T12:04:46.879Z,165
2017-02-20T12:05:57.270Z,190
2017-02-20T12:07:07.681Z,140
2017-02-20T12:08:18.090Z,135
2017-02-20T12:09:28.112Z,125
2017-02-20T12:10:38.508Z,120
2017-02-20T12:11:49.283Z,130
2017-02-20T12:12:59.664Z,250
2017-02-20T12:14:10.463Z,150
2017-02-20T12:15:21.266Z,255
2017-02-20T12:16:32.048Z,255
2017-02-20T12:17:42.836Z,255
2017-02-20T12:18:53.630Z,255
2017-02-20T12:20:04.408Z,260
2017-02-20T12:21:14.822Z,260
2017-02-20T12:22:25.240Z,185
2017-02-20T12:23:36.033Z,125
2017-02-20T12:24:46.830Z,120
2017-02-20T12:25:57.207Z,230
2017-02-20T12:27:07.608Z,235
2017-02-20T12:28:17.591Z,235
2017-02-20T12:29:27.597Z,165
2017-02-20T12:30:38.389Z,265
2017-02-20T12:31:48.425Z,140
2017-02-20T12:32:59.216Z,135
2017-02-20T12:34:10.038Z,160
2017-02-20T12:35:20.425Z,165
2017-02-20T12:36:31.211Z,230
2017-02-20T12:37:42.011Z,280
2017-02-20T12:38:52.402Z,280
2017-02-20T12:40:02.792Z,300
2017-02-20T12:41:13.594Z,285
2017-02-20T12:42:24.367Z,215
2017-02-20T12:43:34.343Z,170
2017-02-20T12:44:44.339Z,235
2017-02-20T12:45:55.148Z,275
2017-02-20T12:47:05.546Z,260
2017-02-20T12:48:15.525Z,150
2017-02-20T12:49:25.576Z,135
2017-02-20T12:50:36.022Z,170
2017-02-20T12:51:46.668Z,135
2017-02-20T12:52:57.056Z,125
2017-02-20T12:54:07.437Z,130
2017-02-20T12:55:17.836Z,130
2017-02-20T12:56:28.206Z,235
2017-02-20T12:57:38.198Z,135
2017-02-20T12:58:47.806Z,250
2017-02-20T12:59:58.586Z,250
2017-02-20T13:01:08.204Z,240
2017-02-20T13:02:19.014Z,240
2017-02-20T13:03:29.811Z,240
2017-02-20T13:04:40.225Z,245
2017-02-20T13:05:51.030Z,245
2017-02-20T13:07:01.057Z,240
2017-02-20T13:08:11.854Z,250
2017-02-20T13:09:22.280Z,245
2017-02-20T13:10:31.893Z,240
2017-02-20T13:11:42.303Z,235
2017-02-20T13:12:53.095Z,235
2017-02-20T13:14:03.878Z,230
2017-02-20T13:15:13.905Z,235
2017-02-20T13:16:24.691Z,235
2017-02-20T13:17:35.487Z,230
2017-02-20T13:18:45.870Z,230
2017-02-20T13:19:56.653Z,230
2017-02-20T13:21:06.694Z,225
2017-02-20T13:22:16.697Z,230
2017-02-20T13:23:27.083Z,240
2017-02-20T13:24:37.503Z,245
2017-02-20T13:25:47.891Z,250
2017-02-20T13:26:58.278Z,250
2017-02-20T13:28:08.682Z,255
2017-02-20T13:29:18.675Z,270
2017-02-20T13:30:29.432Z,270
2017-02-20T13:31:39.433Z,265
2017-02-20T13:32:49.833Z,265
2017-02-20T13:34:00.246Z,265
2017-02-20T13:35:11.037Z,225
2017-02-20T13:36:21.471Z,250
2017-02-20T13:37:31.883Z,235
2017-02-20T13:38:42.302Z,220
2017-02-20T13:39:53.087Z,210
2017-02-20T13:41:03.899Z,210
2017-02-20T13:42:14.920Z,205
2017-02-20T13:43:25.335Z,200
2017-02-20T13:44:35.367Z,200
2017-02-20T13:45:44.965Z,200
2017-02-20T13:46:55.781Z,200
2017-02-20T13:48:06.585Z,200
2017-02-20T13:49:17.375Z,200
2017-02-20T13:50:27.380Z,195
2017-02-20T13:51:37.797Z,190
2017-02-20T13:52:47.434Z,195
2017-02-20T13:53:57.416Z,195
2017-02-20T13:55:08.196Z,195
2017-02-20T13:56:18.604Z,190
2017-02-20T13:57:28.981Z,190
2017-02-20T13:58:39.370Z,190
2017-02-20T13:59:49.776Z,195
2017-02-20T14:01:00.559Z,190
2017-02-20T14:02:10.177Z,185
2017-02-20T14:03:20.981Z,185
2017-02-20T14:04:31.388Z,190
2017-02-20T14:05:42.195Z,190
2017-02-20T14:06:52.177Z,185
2017-02-20T14:08:02.193Z,180
2017-02-20T14:09:13.016Z,180
2017-02-20T14:10:23.425Z,180
2017-02-20T14:11:33.429Z,175
2017-02-20T14:12:43.429Z,175
2017-02-20T14:13:53.808Z,165
2017-02-20T14:15:04.197Z,170
2017-02-20T14:16:14.993Z,170
2017-02-20T14:17:25.781Z,165
2017-02-20T14:18:35.793Z,165
2017-02-20T14:19:46.618Z,165
2017-02-20T14:20:57.023Z,160
2017-02-20T14:22:07.452Z,155
2017-02-20T14:23:17.440Z,155
2017-02-20T14:24:28.266Z,160
2017-02-20T14:25:38.642Z,160
2017-02-20T14:26:49.446Z,150
2017-02-20T14:27:59.846Z,150
2017-02-20T14:29:09.892Z,150
2017-02-20T14:30:19.915Z,150
2017-02-20T14:31:30.704Z,150
2017-02-20T14:32:40.707Z,150
2017-02-20T14:33:51.502Z,150
2017-02-20T14:35:01.516Z,145
2017-02-20T14:36:12.337Z,145
2017-02-20T14:37:23.163Z,145
2017-02-20T14:38:33.566Z,145
2017-02-20T14:39:44.419Z,140
2017-02-20T14:40:54.839Z,135
2017-02-20T14:42:05.222Z,135
2017-02-20T14:43:15.237Z,135
2017-02-20T14:44:25.643Z,130
2017-02-20T14:45:36.456Z,130
2017-02-20T14:46:46.884Z,130
2017-02-20T14:47:57.666Z,125
2017-02-20T14:49:08.442Z,120
2017-02-20T14:50:18.850Z,120
2017-02-20T14:51:29.619Z,115
2017-02-20T14:52:39.633Z,115
2017-02-20T14:53:50.061Z,115
2017-02-20T14:55:00.465Z,110
2017-02-20T14:56:11.311Z,110
2017-02-20T14:57:21.683Z,110
2017-02-20T14:58:32.494Z,110
2017-02-20T14:59:43.296Z,105
2017-02-20T15:00:53.337Z,105
2017-02-20T15:02:03.347Z,105
2017-02-20T15:03:13.357Z,105
2017-02-20T15:04:24.152Z,105
2017-02-20T15:05:34.561Z,105
2017-02-20T15:06:44.955Z,100
2017-02-20T15:07:55.794Z,100
2017-02-20T15:09:06.634Z,95
2017-02-20T15:10:17.458Z,95
2017-02-20T15:11:27.860Z,90
2017-02-20T15:12:38.632Z,90
2017-02-20T15:13:49.028Z,90
2017-02-20T15:14:59.424Z,85
2017-02-20T15:16:09.026Z,85
2017-02-20T15:17:19.430Z,85
2017-02-20T15:18:29.807Z,85
2017-02-20T15:19:40.201Z,85
2017-02-20T15:20:50.587Z,85
2017-02-20T15:22:01.389Z,80
2017-02-20T15:23:12.178Z,80
2017-02-20T15:24:22.570Z,75
2017-02-20T15:25:32.978Z,75
2017-02-20T15:26:43.791Z,70
2017-02-20T15:27:54.573Z,70
2017-02-20T15:29:04.988Z,75
2017-02-20T15:30:15.373Z,70
2017-02-20T15:31:25.772Z,65
2017-02-20T15:32:35.800Z,60
2017-02-20T15:33:46.603Z,60
2017-02-20T15:34:57.019Z,55
2017-02-20T15:36:07.436Z,55
2017-02-20T15:37:17.826Z,55
2017-02-20T15:38:28.633Z,50
2017-02-20T15:39:39.439Z,50
2017-02-20T15:40:50.254Z,45
2017-02-20T15:42:00.645Z,45
2017-02-20T15:43:11.050Z,45
2017-02-20T15:44:21.436Z,45
2017-02-20T15:45:32.300Z,40
2017-02-20T15:46:42.307Z,45
2017-02-20T15:47:53.126Z,40
2017-02-20T15:49:03.940Z,40
2017-02-20T15:50:14.312Z,35
2017-02-20T15:51:25.129Z,35
2017-02-20T15:52:35.933Z,35
2017-02-20T15:53:46.730Z,30
2017-02-20T15:54:57.529Z,30
2017-02-20T15:56:08.294Z,30
2017-02-20T15:57:18.370Z,25
2017-02-20T15:58:28.747Z,25
2017-02-20T15:59:39.164Z,20
2017-02-20T16:00:49.954Z,20
2017-02-20T16:02:00.769Z,20
2017-02-20T16:03:10.405Z,15
2017-02-20T16:04:21.200Z,15
2017-02-20T16:05:31.975Z,15
2017-02-20T16:06:41.988Z,10
2017-02-20T16:07:51.984Z,10
2017-02-20T16:09:02.375Z,10
2017-02-20T16:10:12.786Z,10
2017-02-20T16:11:23.213Z,5
2017-02-20T16:12:33.983Z,5
2017-02-20T16:13:44.381Z,5
2017-02-20T16:14:55.189Z,5
2017-02-20T16:16:05.600Z,5
2017-02-20T16:17:15.607Z,5
2017-02-20T16:18:26.397Z,5
2017-02-20T16:19:37.208Z,5
2017-02-20T16:20:47.596Z,0
2017-02-20T16:21:58.378Z,0
2017-02-20T16:23:08.807Z,0
2017-02-20T16:24:18.852Z,0
2017-02-20T16:25:29.629Z,0
2017-02-20T16:26:40.028Z,0
2017-02-20T16:27:50.835Z,0
2017-02-20T16:29:01.652Z,0
2017-02-20T16:30:12.444Z,0
2017-02-20T16:31:23.269Z,0
2017-02-20T16:32:34.079Z,0
2017-02-20T16:33:44.920Z,0
2017-02-20T16:34:55.707Z,0
2017-02-20T16:36:06.119Z,0
2017-02-20T16:37:15.785Z,0
2017-02-20T16:38:26.162Z,0
2017-02-20T16:39:36.951Z,0
2017-02-20T16:40:47.361Z,0
2017-02-20T16:41:58.163Z,0
2017-02-20T16:43:08.158Z,0
2017-02-20T16:44:18.537Z,0
2017-02-20T16:45:28.910Z,0
2017-02-20T16:46:39.361Z,0
2017-02-20T16:47:50.175Z,0
2017-02-20T16:49:00.967Z,0
2017-02-20T16:50:11.355Z,0
2017-02-20T16:51:22.162Z,0
2017-02-20T16:52:32.974Z,0
2017-02-20T16:53:43.381Z,0
2017-02-20T16:54:53.769Z,0
2017-02-20T16:56:04.184Z,0
2017-02-20T16:57:14.576Z,0
2017-02-20T16:58:25.355Z,0
2017-02-20T16:59:36.174Z,0
2017-02-20T17:00:46.180Z,0
2017-02-20T17:01:56.181Z,0
2017-02-20T17:03:06.592Z,0
2017-02-20T17:04:16.995Z,0
2017-02-20T17:05:27.423Z,0
2017-02-20T17:06:38.203Z,0
2017-02-20T17:07:49.005Z,0
2017-02-20T17:08:59.060Z,0
2017-02-20T17:10:09.896Z,0
2017-02-20T17:11:20.317Z,0
2017-02-20T17:12:30.728Z,0
2017-02-20T17:13:41.563Z,0
2017-02-20T17:14:52.373Z,0
2017-02-20T17:16:02.784Z,0